Time;durP1;ratioP1;P1;durP2;ratioP2;P2;SDS_P1;SDS_P2;PMS_P1;PMS_P2;Temp;Humidity;BMP_temperature;BMP_pressure;BME280_temperature;BME280_humidity;BME280_pressure;Samples;Min_cycle;Max_cycle;Signal;HPM_P1;HPM_P2
2022/07/06 00:00:36;;;;;;;6.70;3.40;;;;;;;25.97;39.94;100640.98;107241;1248;72684;-81
2022/07/06 00:03:05;;;;;;;8.20;3.50;;;;;;;25.91;39.77;100636.66;107245;1248;60087;-82
2022/07/06 00:05:34;;;;;;;10.10;3.40;;;;;;;25.84;40.19;100636.56;107262;1248;63389;-81
2022/07/06 00:08:03;;;;;;;6.60;3.70;;;;;;;25.76;40.74;100638.28;107378;1245;59056;-83
2022/07/06 00:10:32;;;;;;;7.20;3.80;;;;;;;25.67;41.08;100640.39;107263;1249;59142;-81
2022/07/06 00:13:01;;;;;;;8.80;3.50;;;;;;;25.59;41.21;100644.40;107306;1247;72817;-82
2022/07/06 00:15:29;;;;;;;4.50;3.20;;;;;;;25.50;41.54;100646.53;106960;1247;537545;-83
2022/07/06 00:17:58;;;;;;;6.50;3.50;;;;;;;25.44;41.49;100641.73;107409;1247;60455;-81
2022/07/06 00:20:27;;;;;;;10.70;3.80;;;;;;;25.39;41.70;100640.77;107354;1249;62437;-81
2022/07/06 00:22:56;;;;;;;9.20;3.60;;;;;;;25.28;42.21;100637.66;107916;1248;59829;-85
2022/07/06 00:25:24;;;;;;;6.40;3.60;;;;;;;25.24;42.23;100635.45;107449;1247;62117;-80
2022/07/06 00:27:53;;;;;;;8.60;3.70;;;;;;;25.21;42.16;100632.37;107098;1250;63314;-80
2022/07/06 00:30:22;;;;;;;7.60;3.60;;;;;;;25.19;42.09;100633.61;107258;1249;61530;-81
2022/07/06 00:32:51;;;;;;;6.40;3.60;;;;;;;25.14;42.35;100631.48;107191;1249;69857;-79
2022/07/06 00:35:20;;;;;;;14.60;3.90;;;;;;;25.08;42.77;100630.73;107355;1247;74605;-79
2022/07/06 00:37:51;;;;;;;8.60;3.60;;;;;;;25.03;42.93;100627.16;107024;1251;58879;-78
2022/07/06 00:40:20;;;;;;;7.90;3.80;;;;;;;24.95;43.17;100625.21;107264;1247;59677;-78
2022/07/06 00:42:49;;;;;;;8.90;4.00;;;;;;;24.88;43.50;100625.23;107297;1248;73008;-78
2022/07/06 00:45:18;;;;;;;11.60;4.20;;;;;;;24.79;44.13;100626.42;107308;1247;72792;-79
2022/07/06 00:47:47;;;;;;;7.00;3.90;;;;;;;24.68;44.56;100623.58;107299;1247;60062;-78
2022/07/06 00:50:20;;;;;;;7.10;3.80;;;;;;;24.55;45.01;100621.48;107394;1247;63296;-76
2022/07/06 00:52:53;;;;;;;8.50;4.00;;;;;;;24.45;45.47;100621.80;107320;1247;58854;-77
2022/07/06 00:55:29;;;;;;;11.40;4.30;;;;;;;24.36;45.73;100622.49;107348;1247;59166;-75
2022/07/06 00:58:02;;;;;;;10.00;3.60;;;;;;;24.31;46.21;100627.23;107278;1247;63047;-74
2022/07/06 01:00:32;;;;;;;8.90;3.70;;;;;;;24.26;45.70;100628.73;107297;1248;71503;-73
2022/07/06 01:03:01;;;;;;;11.00;4.00;;;;;;;24.20;46.58;100630.98;107227;1249;61027;-76
2022/07/06 01:05:30;;;;;;;11.30;3.70;;;;;;;24.12;46.82;100632.57;107218;1248;74237;-73
2022/07/06 01:08:00;;;;;;;7.20;3.90;;;;;;;24.07;47.05;100632.46;107238;1249;57510;-79
2022/07/06 01:10:29;;;;;;;11.40;3.70;;;;;;;24.01;47.31;100632.52;107147;1250;59109;-76
2022/07/06 01:12:58;;;;;;;8.70;4.10;;;;;;;23.94;47.27;100631.44;107194;1249;72891;-75
2022/07/06 01:15:27;;;;;;;8.60;3.90;;;;;;;23.89;47.44;100630.43;107166;1249;61373;-77
2022/07/06 01:17:56;;;;;;;10.90;4.10;;;;;;;23.84;47.81;100633.05;107214;1249;69883;-78
2022/07/06 01:20:29;;;;;;;7.70;3.50;;;;;;;23.80;47.58;100630.08;107334;1248;74301;-76
2022/07/06 01:22:59;;;;;;;9.80;3.90;;;;;;;23.73;48.06;100621.82;107428;1248;61095;-75
2022/07/06 01:25:28;;;;;;;8.20;3.90;;;;;;;23.75;47.97;100628.16;107375;1250;58465;-74
2022/07/06 01:27:57;;;;;;;8.00;4.30;;;;;;;23.70;48.14;100627.82;107204;1251;62185;-75
2022/07/06 01:30:26;;;;;;;8.60;4.10;;;;;;;23.65;48.41;100626.89;107316;1249;70662;-76
2022/07/06 01:32:55;;;;;;;6.40;3.80;;;;;;;23.63;47.96;100624.70;107327;1249;69717;-74
2022/07/06 01:35:26;;;;;;;5.80;3.70;;;;;;;23.61;48.33;100625.16;107231;1249;74518;-76
2022/07/06 01:37:55;;;;;;;10.10;4.10;;;;;;;23.60;48.12;100630.20;107257;1250;61821;-75
2022/07/06 01:40:23;;;;;;;7.00;3.70;;;;;;;23.59;47.81;100633.95;107134;1249;60715;-77
2022/07/06 01:42:52;;;;;;;6.30;3.70;;;;;;;23.59;47.74;100635.27;107127;1249;63614;-75
2022/07/06 01:45:21;;;;;;;10.10;3.80;;;;;;;23.58;47.49;100631.95;107231;1247;61821;-75
2022/07/06 01:47:50;;;;;;;9.80;4.00;;;;;;;23.57;47.43;100628.22;107201;1249;59116;-74
2022/07/06 01:50:19;;;;;;;8.20;3.90;;;;;;;23.55;47.40;100625.18;107234;1247;73958;-75
2022/07/06 01:52:48;;;;;;;11.60;4.50;;;;;;;23.53;47.42;100627.86;107167;1249;59111;-75
2022/07/06 01:55:18;;;;;;;7.30;3.90;;;;;;;23.50;47.46;100624.70;107247;1248;60481;-76
2022/07/06 01:57:46;;;;;;;11.00;3.70;;;;;;;23.47;47.67;100622.84;107070;1249;74208;-74
2022/07/06 02:00:15;;;;;;;6.70;4.10;;;;;;;23.43;47.98;100622.45;107108;1249;61441;-73
2022/07/06 02:02:46;;;;;;;7.30;3.60;;;;;;;23.40;48.01;100623.94;107150;1249;59206;-74
2022/07/06 02:05:15;;;;;;;6.40;4.00;;;;;;;23.39;47.93;100625.62;107197;1249;63397;-74
2022/07/06 02:07:44;;;;;;;5.70;3.40;;;;;;;23.35;48.04;100625.93;107062;1251;59044;-75
2022/07/06 02:10:13;;;;;;;9.50;3.80;;;;;;;23.31;47.80;100621.85;107193;1249;58894;-76
2022/07/06 02:12:43;;;;;;;6.50;3.50;;;;;;;23.29;47.96;100620.52;107242;1248;63273;-74
2022/07/06 02:15:12;;;;;;;8.40;3.50;;;;;;;23.29;47.95;100625.52;107267;1250;60802;-75
2022/07/06 02:17:41;;;;;;;8.80;4.10;;;;;;;23.32;47.88;100620.91;107166;1249;59320;-76
2022/07/06 02:20:10;;;;;;;9.70;4.00;;;;;;;23.35;47.68;100623.27;107141;1249;73819;-75
2022/07/06 02:22:39;;;;;;;10.60;4.70;;;;;;;23.39;47.53;100623.37;107355;1249;58994;-75
2022/07/06 02:25:08;;;;;;;10.80;4.10;;;;;;;23.40;47.69;100622.67;107435;1249;60616;-75
2022/07/06 02:27:38;;;;;;;14.60;4.40;;;;;;;23.42;47.62;100620.99;107255;1249;74446;-77
2022/07/06 02:30:08;;;;;;;10.80;4.20;;;;;;;23.46;47.51;100621.52;107079;1249;71966;-73
2022/07/06 02:32:37;;;;;;;9.30;4.00;;;;;;;23.45;47.43;100620.28;107259;1247;60462;-73
2022/07/06 02:35:06;;;;;;;7.10;4.20;;;;;;;23.41;47.48;100617.27;107248;1249;63273;-74
2022/07/06 02:37:37;;;;;;;9.30;4.60;;;;;;;23.40;47.50;100616.03;107328;1247;59008;-74
2022/07/06 02:40:06;;;;;;;7.20;3.90;;;;;;;23.41;47.56;100616.65;107363;1249;59000;-74
2022/07/06 02:42:35;;;;;;;11.30;4.20;;;;;;;23.40;47.34;100613.20;107446;1249;63938;-74
2022/07/06 02:45:06;;;;;;;10.30;4.50;;;;;;;23.38;47.53;100613.36;107565;1248;72427;-74
2022/07/06 02:47:35;;;;;;;16.00;4.90;;;;;;;23.40;47.69;100615.20;107507;1248;71004;-75
2022/07/06 02:50:06;;;;;;;12.90;4.80;;;;;;;23.43;47.46;100618.67;107285;1249;71611;-74
2022/07/06 02:52:35;;;;;;;8.60;4.20;;;;;;;23.49;47.30;100618.46;107341;1249;61742;-71
2022/07/06 02:55:10;;;;;;;10.60;4.40;;;;;;;23.52;47.02;100616.98;107486;1247;59041;-79
2022/07/06 02:57:40;;;;;;;9.90;4.50;;;;;;;23.51;47.10;100614.93;107137;1249;72866;-78
2022/07/06 03:00:10;;;;;;;15.10;4.40;;;;;;;23.51;47.20;100618.35;107233;1249;71870;-80
2022/07/06 03:02:39;;;;;;;7.90;4.10;;;;;;;23.51;47.26;100620.10;107345;1247;69001;-80
2022/07/06 03:05:08;;;;;;;11.70;4.30;;;;;;;23.48;47.62;100619.81;107256;1247;74510;-77
2022/07/06 03:07:38;;;;;;;8.70;4.20;;;;;;;23.48;47.56;100620.39;107268;1247;58923;-74
2022/07/06 03:10:07;;;;;;;9.20;4.50;;;;;;;23.51;47.40;100617.48;107283;1247;62235;-77
2022/07/06 03:12:37;;;;;;;12.60;4.20;;;;;;;23.49;47.36;100619.41;107266;1247;63445;-76
2022/07/06 03:15:09;;;;;;;10.80;4.00;;;;;;;23.48;47.41;100619.48;107277;1247;61606;-76
2022/07/06 03:17:39;;;;;;;13.10;4.90;;;;;;;23.51;47.56;100620.76;107334;1248;60380;-76
2022/07/06 03:20:09;;;;;;;15.60;4.60;;;;;;;23.53;47.74;100619.73;107367;1248;73974;-77
2022/07/06 03:22:37;;;;;;;15.80;4.60;;;;;;;23.53;47.61;100620.11;107258;1247;61871;-78
2022/07/06 03:25:07;;;;;;;9.30;4.10;;;;;;;23.54;47.70;100616.92;107146;1249;61728;-77
2022/07/06 03:27:37;;;;;;;14.90;5.00;;;;;;;23.60;47.51;100617.25;107322;1247;63930;-77
2022/07/06 03:30:07;;;;;;;13.50;4.50;;;;;;;23.57;47.66;100614.80;107340;1247;61735;-77
2022/07/06 03:32:42;;;;;;;9.60;4.50;;;;;;;23.55;47.76;100614.55;107403;1249;60909;-81
2022/07/06 03:35:11;;;;;;;11.10;5.70;;;;;;;23.56;48.23;100614.06;107408;1249;63250;-78
2022/07/06 03:37:42;;;;;;;13.00;4.70;;;;;;;23.58;48.32;100615.21;107462;1249;57514;-79
2022/07/06 03:40:12;;;;;;;9.80;4.10;;;;;;;23.56;48.08;100617.42;107514;1248;59469;-77
2022/07/06 03:42:40;;;;;;;6.90;4.00;;;;;;;23.60;48.15;100616.87;107465;1249;64723;-77
2022/07/06 03:45:10;;;;;;;14.20;4.20;;;;;;;23.62;48.27;100610.41;107469;1247;72650;-75
2022/07/06 03:47:40;;;;;;;13.00;5.20;;;;;;;23.62;48.59;100610.38;107430;1248;69382;-83
2022/07/06 03:50:10;;;;;;;13.00;4.10;;;;;;;23.68;48.43;100607.66;107400;1248;73494;-83
2022/07/06 03:52:39;;;;;;;8.10;4.30;;;;;;;23.72;48.40;100607.88;107547;1247;61020;-86
2022/07/06 03:55:11;;;;;;;10.20;4.50;;;;;;;23.76;48.22;100603.43;107548;1248;61493;-86
2022/07/06 03:57:42;;;;;;;13.20;4.90;;;;;;;23.82;48.13;100606.73;107833;1247;62805;-80
2022/07/06 04:00:14;;;;;;;9.40;4.30;;;;;;;23.89;47.78;100606.34;107395;1248;72361;-78
2022/07/06 04:02:45;;;;;;;10.80;4.60;;;;;;;23.96;48.10;100606.04;107446;1247;70178;-76
2022/07/06 04:05:21;;;;;;;10.20;4.40;;;;;;;24.00;47.38;100613.31;107405;1247;73559;-76
2022/07/06 04:07:50;;;;;;;10.10;4.50;;;;;;;24.08;47.64;100612.84;107467;1248;59100;-80
2022/07/06 04:10:20;;;;;;;9.60;4.40;;;;;;;24.13;47.44;100617.79;107477;1247;61345;-79
2022/07/06 04:12:49;;;;;;;12.60;4.60;;;;;;;24.18;47.30;100620.38;107556;1248;73647;-77
2022/07/06 04:15:19;;;;;;;16.00;4.10;;;;;;;24.20;46.68;100624.53;107577;1247;71740;-80
2022/07/06 04:17:55;;;;;;;9.40;4.30;;;;;;;24.22;47.27;100628.84;107472;1247;60518;-80
2022/07/06 04:20:41;;;;;;;9.40;4.60;;;;;;;24.24;47.19;100627.53;107476;1247;62572;-79
2022/07/06 04:23:10;;;;;;;14.60;4.90;;;;;;;24.27;47.51;100617.86;107354;1248;60723;-79
2022/07/06 04:25:38;;;;;;;15.70;5.70;;;;;;;24.28;47.85;100613.66;107323;1247;62191;-77
2022/07/06 04:28:08;;;;;;;13.30;4.50;;;;;;;24.35;47.07;100613.02;107513;1247;62610;-81
2022/07/06 04:30:37;;;;;;;12.00;5.20;;;;;;;24.37;46.65;100611.44;107404;1248;60960;-82
2022/07/06 04:33:08;;;;;;;16.60;4.50;;;;;;;24.44;46.85;100613.38;107547;1247;69652;-81
2022/07/06 04:35:39;;;;;;;10.90;4.70;;;;;;;24.52;46.57;100611.39;107517;1247;74501;-83
2022/07/06 04:38:08;;;;;;;10.40;4.60;;;;;;;24.56;46.32;100607.13;107617;1250;59689;-82
2022/07/06 04:40:37;;;;;;;16.20;4.70;;;;;;;24.61;46.32;100601.82;108198;1247;61437;-80
2022/07/06 04:43:08;;;;;;;12.90;4.80;;;;;;;24.71;45.75;100599.23;108417;1249;62864;-81
2022/07/06 04:45:38;;;;;;;11.30;4.80;;;;;;;24.82;45.52;100593.83;107665;1249;71530;-69
2022/07/06 04:48:08;;;;;;;11.00;4.10;;;;;;;24.87;45.35;100598.31;107655;1247;71938;-70
2022/07/06 04:50:37;;;;;;;13.70;4.50;;;;;;;24.97;45.15;100600.52;108236;1247;63724;-70
2022/07/06 04:53:10;;;;;;;11.30;4.40;;;;;;;25.07;44.81;100599.16;108215;1246;59667;-67
2022/07/06 04:55:40;;;;;;;15.10;4.40;;;;;;;25.16;45.13;100595.26;107709;1247;59583;-70
2022/07/06 04:58:09;;;;;;;8.60;4.40;;;;;;;25.27;44.65;100591.20;107396;1246;72961;-69
2022/07/06 05:00:38;;;;;;;13.20;4.90;;;;;;;25.37;44.49;100592.93;107263;1247;72612;-68
2022/07/06 05:03:07;;;;;;;9.50;4.80;;;;;;;25.51;44.23;100593.59;107202;1248;68639;-70
2022/07/06 05:05:37;;;;;;;13.10;4.50;;;;;;;25.61;44.06;100593.70;107091;1247;74402;-68
2022/07/06 05:08:06;;;;;;;11.80;5.30;;;;;;;25.71;43.72;100593.50;107227;1249;59067;-65
2022/07/06 05:10:36;;;;;;;16.20;5.30;;;;;;;25.79;44.40;100595.42;107223;1248;59069;-67
2022/07/06 05:13:05;;;;;;;14.40;4.50;;;;;;;25.87;44.28;100597.81;107168;1249;73022;-67
2022/07/06 05:15:34;;;;;;;8.80;4.30;;;;;;;25.97;43.90;100597.34;107180;1247;61667;-67
2022/07/06 05:18:03;;;;;;;12.00;4.60;;;;;;;25.95;43.62;100599.55;107136;1247;59122;-67
2022/07/06 05:20:32;;;;;;;13.90;4.40;;;;;;;26.00;43.61;100603.63;107214;1248;73924;-76
2022/07/06 05:23:01;;;;;;;12.50;4.50;;;;;;;26.13;43.16;100603.47;107320;1247;61317;-79
2022/07/06 05:25:32;;;;;;;13.00;4.50;;;;;;;26.16;42.65;100599.26;107421;1247;58912;-77
2022/07/06 05:28:02;;;;;;;15.00;4.70;;;;;;;26.29;42.91;100598.23;107293;1247;72914;-83
2022/07/06 05:30:32;;;;;;;9.10;4.60;;;;;;;26.41;43.29;100593.95;107262;1248;71827;-79
2022/07/06 05:33:01;;;;;;;16.00;5.20;;;;;;;26.54;43.18;100591.39;107204;1249;71001;-78
2022/07/06 05:35:31;;;;;;;8.90;4.40;;;;;;;26.65;42.24;100584.13;107205;1247;73815;-81
2022/07/06 05:38:22;;;;;;;7.70;4.40;;;;;;;26.76;41.64;100581.36;107347;1248;58932;-79
2022/07/06 05:40:51;;;;;;;10.00;4.10;;;;;;;26.88;41.51;100580.86;107385;1250;57677;-83
2022/07/06 05:43:20;;;;;;;7.90;4.50;;;;;;;27.00;41.24;100584.99;107638;1248;71588;-81
2022/07/06 05:45:50;;;;;;;11.40;4.10;;;;;;;27.04;40.57;100582.99;107288;1249;72388;-85
2022/07/06 05:51:07;;;;;;;12.10;4.70;;;;;;;27.06;40.69;100581.85;107649;1248;74551;-80
2022/07/06 05:53:36;;;;;;;7.60;4.00;;;;;;;27.22;40.60;100580.05;107740;1248;58828;-81
2022/07/06 05:56:06;;;;;;;13.80;5.30;;;;;;;27.33;40.02;100576.46;107585;1248;57422;-84
2022/07/06 05:58:36;;;;;;;9.70;4.60;;;;;;;27.43;40.02;100578.58;107171;1249;72904;-84
2022/07/06 06:01:07;;;;;;;13.10;4.90;;;;;;;27.59;39.76;100581.64;107351;1248;72620;-84
2022/07/06 06:03:37;;;;;;;9.70;4.60;;;;;;;27.71;39.75;100586.61;107592;1247;71062;-79
2022/07/06 06:06:07;;;;;;;8.40;4.30;;;;;;;27.83;39.46;100583.83;107437;1249;74531;-84
2022/07/06 06:08:36;;;;;;;10.80;4.50;;;;;;;27.96;39.12;100583.48;107727;1249;58999;-82
2022/07/06 06:11:07;;;;;;;11.30;4.90;;;;;;;28.08;38.62;100583.46;107601;1248;60454;-83
2022/07/06 06:13:40;;;;;;;12.20;4.40;;;;;;;28.14;38.73;100586.11;107670;1249;65188;-82
2022/07/06 06:16:11;;;;;;;6.90;3.90;;;;;;;28.19;38.46;100583.81;107506;1248;61559;-80
2022/07/06 06:18:43;;;;;;;5.30;3.70;;;;;;;28.25;38.50;100580.58;107725;1248;69879;-78
2022/07/06 06:21:12;;;;;;;6.90;4.00;;;;;;;28.29;38.16;100580.99;107622;1248;74227;-79
2022/07/06 06:23:41;;;;;;;13.20;4.40;;;;;;;28.33;38.18;100580.84;107485;1248;59025;-80
2022/07/06 06:26:11;;;;;;;11.40;4.50;;;;;;;28.36;38.38;100581.36;107603;1248;59568;-82
2022/07/06 06:28:41;;;;;;;11.10;4.90;;;;;;;28.47;38.35;100583.04;107616;1247;73516;-79
2022/07/06 06:31:10;;;;;;;14.30;5.30;;;;;;;28.63;38.33;100582.02;107676;1249;62264;-82
2022/07/06 06:33:41;;;;;;;15.70;6.70;;;;;;;28.80;38.11;100584.57;107767;1247;61374;-83
2022/07/06 06:36:11;;;;;;;13.20;6.30;;;;;;;28.95;38.10;100581.86;107545;1247;74514;-81
2022/07/06 06:38:40;;;;;;;13.30;5.60;;;;;;;29.14;37.96;100582.16;107740;1247;61089;-80
2022/07/06 06:41:09;;;;;;;9.10;4.60;;;;;;;29.13;37.92;100579.40;107607;1249;58900;-81
2022/07/06 06:43:38;;;;;;;11.10;4.60;;;;;;;29.18;37.56;100578.06;107447;1247;72960;-83
2022/07/06 06:46:13;;;;;;;12.70;4.70;;;;;;;29.20;37.63;100580.63;107310;1248;72871;-82
2022/07/06 06:48:42;;;;;;;10.70;4.50;;;;;;;29.37;37.63;100584.10;107561;1248;60856;-83
2022/07/06 06:51:11;;;;;;;7.20;4.50;;;;;;;29.37;37.37;100585.50;107569;1247;63309;-84
2022/07/06 06:53:40;;;;;;;7.50;4.20;;;;;;;29.52;36.96;100586.36;107486;1248;60880;-82
2022/07/06 06:56:17;;;;;;;7.60;4.10;;;;;;;29.62;36.87;100581.58;107560;1248;61609;-82
2022/07/06 06:58:46;;;;;;;10.20;4.90;;;;;;;29.63;36.74;100581.11;107660;1248;63765;-86
2022/07/06 07:01:36;;;;;;;11.50;5.10;;;;;;;29.59;36.87;100578.83;107573;1248;60949;-83
2022/07/06 07:04:07;;;;;;;17.20;5.90;;;;;;;29.45;36.91;100577.60;107379;1249;71652;-81
2022/07/06 07:06:36;;;;;;;14.20;5.60;;;;;;;29.48;37.01;100579.70;107260;1247;72512;-82
2022/07/06 07:09:05;;;;;;;15.40;4.70;;;;;;;29.58;37.01;100578.36;107715;1247;60912;-83
2022/07/06 07:11:34;;;;;;;9.90;4.80;;;;;;;29.68;36.84;100581.41;107640;1248;61330;-84
2022/07/06 07:14:03;;;;;;;9.40;4.90;;;;;;;29.67;36.78;100579.08;107689;1247;74501;-81
2022/07/06 07:16:31;;;;;;;10.90;5.10;;;;;;;29.69;36.92;100575.73;107595;1248;72648;-84
2022/07/06 07:19:00;;;;;;;9.50;4.90;;;;;;;29.61;36.90;100579.94;107452;1249;70355;-83
2022/07/06 07:21:29;;;;;;;13.20;5.10;;;;;;;29.82;36.80;100579.03;107621;1249;63184;-84
2022/07/06 07:23:58;;;;;;;9.80;4.80;;;;;;;29.98;36.36;100581.81;107561;1249;59658;-85
2022/07/06 07:26:27;;;;;;;7.10;4.50;;;;;;;30.09;36.24;100579.30;107549;1249;61366;-82
2022/07/06 07:28:55;;;;;;;15.90;5.10;;;;;;;30.22;36.18;100580.92;107387;1249;74961;-81
2022/07/06 07:31:24;;;;;;;10.90;4.70;;;;;;;30.28;36.09;100574.02;107574;1249;61722;-82
2022/07/06 07:33:56;;;;;;;8.10;4.40;;;;;;;30.43;35.89;100571.45;107458;1248;69575;-83
2022/07/06 07:36:26;;;;;;;10.70;4.80;;;;;;;30.65;35.53;100571.53;107724;1248;62980;-83
2022/07/06 07:38:55;;;;;;;10.50;5.10;;;;;;;30.85;35.51;100563.86;107511;1250;59602;-84
2022/07/06 07:41:24;;;;;;;7.10;4.50;;;;;;;31.10;35.00;100567.33;107548;1248;59558;-83
2022/07/06 07:43:52;;;;;;;10.30;4.70;;;;;;;31.23;34.40;100562.42;107419;1247;73678;-85
2022/07/06 07:46:21;;;;;;;10.30;4.70;;;;;;;31.27;34.01;100557.83;107523;1249;61553;-84
2022/07/06 07:48:50;;;;;;;8.90;4.20;;;;;;;31.40;33.86;100555.20;107826;1249;60106;-83
2022/07/06 07:51:22;;;;;;;7.30;4.00;;;;;;;31.54;33.84;100550.29;107676;1249;72977;-81
2022/07/06 07:53:51;;;;;;;7.00;4.70;;;;;;;31.72;33.50;100552.08;107628;1247;60420;-81
2022/07/06 07:56:22;;;;;;;6.90;4.90;;;;;;;31.69;32.89;100548.66;108059;1249;59551;-82
2022/07/06 07:58:51;;;;;;;13.10;5.10;;;;;;;31.59;32.37;100544.40;107859;1247;74099;-82
2022/07/06 08:01:23;;;;;;;9.20;4.60;;;;;;;31.57;32.41;100543.67;107764;1248;61457;-85
2022/07/06 08:03:52;;;;;;;17.90;4.70;;;;;;;31.77;32.53;100544.81;107262;1251;59300;-82
2022/07/06 08:06:23;;;;;;;8.70;4.30;;;;;;;31.73;32.49;100544.02;107430;1247;62534;-85
2022/07/06 08:08:52;;;;;;;7.50;4.30;;;;;;;31.88;32.41;100545.85;107192;1249;60517;-84
2022/07/06 08:11:21;;;;;;;13.90;4.70;;;;;;;31.85;32.61;100548.52;107488;1247;61575;-81
2022/07/06 08:13:50;;;;;;;10.10;5.00;;;;;;;31.66;33.15;100544.64;107402;1247;73837;-83
2022/07/06 08:16:21;;;;;;;8.90;4.70;;;;;;;31.79;32.82;100545.33;107457;1249;72931;-85
2022/07/06 08:18:50;;;;;;;8.80;4.80;;;;;;;31.86;32.69;100548.42;107642;1247;60440;-82
2022/07/06 08:21:20;;;;;;;7.60;4.30;;;;;;;32.16;32.30;100547.13;107499;1248;73073;-79
2022/07/06 08:23:56;;;;;;;10.20;4.80;;;;;;;32.31;32.03;100546.17;107589;1247;59123;-84
2022/07/06 08:26:25;;;;;;;8.70;5.30;;;;;;;32.37;32.29;100541.11;107435;1249;59750;-82
2022/07/06 08:28:54;;;;;;;9.30;4.30;;;;;;;32.53;31.40;100539.06;107534;1248;63056;-84
2022/07/06 08:31:23;;;;;;;7.70;4.30;;;;;;;32.46;31.30;100542.73;107423;1248;71439;-80
2022/07/06 08:34:12;;;;;;;9.50;4.70;;;;;;;32.42;31.03;100546.16;107558;1249;60428;-79
2022/07/06 08:36:42;;;;;;;8.20;4.30;;;;;;;32.43;31.06;100548.44;107421;1249;64295;-76
2022/07/06 08:39:11;;;;;;;9.30;4.40;;;;;;;32.53;31.07;100540.68;107470;1248;60593;-80
2022/07/06 08:41:43;;;;;;;9.70;4.60;;;;;;;32.72;30.68;100540.89;107471;1248;61784;-79
2022/07/06 08:44:12;;;;;;;8.20;4.40;;;;;;;32.63;31.05;100542.96;107489;1247;73728;-83
2022/07/06 08:46:42;;;;;;;8.60;4.10;;;;;;;32.88;30.32;100536.73;107480;1247;73240;-79
2022/07/06 08:49:17;;;;;;;9.10;4.60;;;;;;;32.93;29.78;100529.89;107451;1251;60669;-81
2022/07/06 08:51:47;;;;;;;9.80;4.50;;;;;;;33.09;29.74;100531.38;107346;1249;74082;-81
2022/07/06 08:54:18;;;;;;;9.30;4.20;;;;;;;33.09;29.77;100522.39;107365;1249;61125;-80
2022/07/06 08:56:47;;;;;;;9.40;4.70;;;;;;;33.27;29.16;100526.84;107380;1249;61355;-80
2022/07/06 08:59:16;;;;;;;9.70;4.50;;;;;;;33.22;28.79;100526.06;107586;1249;64262;-79
2022/07/06 09:01:48;;;;;;;9.20;4.20;;;;;;;33.21;29.13;100525.24;107402;1249;60927;-80
2022/07/06 09:04:23;;;;;;;7.50;4.20;;;;;;;33.55;28.27;100525.77;107632;1248;69381;-85
2022/07/06 09:06:54;;;;;;;5.90;4.00;;;;;;;33.52;28.21;100520.93;107477;1249;74674;-79
2022/07/06 09:09:24;;;;;;;8.20;3.90;;;;;;;33.78;26.02;100520.70;107463;1248;61841;-81
2022/07/06 09:11:53;;;;;;;8.40;4.30;;;;;;;33.86;26.41;100513.99;107396;1248;61649;-82
2022/07/06 09:14:21;;;;;;;9.50;4.00;;;;;;;33.80;26.47;100512.36;107496;1249;65631;-78
2022/07/06 09:17:06;;;;;;;11.10;4.10;;;;;;;33.72;26.68;100509.49;107557;1248;61681;-76
2022/07/06 09:19:45;;;;;;;7.60;4.20;;;;;;;33.78;26.41;100502.34;107553;1248;70583;-80
2022/07/06 09:22:31;;;;;;;7.00;4.10;;;;;;;33.88;26.39;100503.77;107457;1248;63905;-81
2022/07/06 09:25:11;;;;;;;9.40;3.70;;;;;;;34.15;25.36;100499.82;107575;1249;60605;-81
2022/07/06 09:28:01;;;;;;;5.60;3.50;;;;;;;34.11;24.79;100498.23;107291;1249;59613;-80
2022/07/06 09:30:40;;;;;;;8.10;3.30;;;;;;;33.83;24.03;100502.77;107643;1249;74346;-83
2022/07/06 09:33:09;;;;;;;6.90;3.60;;;;;;;33.48;22.79;100500.38;107556;1249;62232;-78
2022/07/06 09:35:39;;;;;;;11.20;3.80;;;;;;;33.37;23.89;100495.16;107488;1250;59201;-80
2022/07/06 09:38:14;;;;;;;6.40;3.30;;;;;;;33.50;24.53;100489.95;107226;1250;63772;-77
2022/07/06 09:40:45;;;;;;;6.30;3.60;;;;;;;33.72;24.55;100489.32;107478;1249;59506;-80
2022/07/06 09:43:23;;;;;;;9.00;3.90;;;;;;;33.84;24.17;100493.23;107472;1249;60445;-81
2022/07/06 09:45:57;;;;;;;6.10;3.50;;;;;;;33.94;22.99;100495.11;107554;1246;74234;-79
2022/07/06 09:48:29;;;;;;;4.40;3.70;;;;;;;34.11;23.62;100495.05;107379;1249;72718;-76
2022/07/06 09:51:02;;;;;;;4.60;4.00;;;;;;;33.98;23.93;100488.59;107586;1249;60820;-81
2022/07/06 09:53:31;;;;;;;6.50;3.10;;;;;;;34.42;23.59;100482.60;107177;1250;63232;-80
2022/07/06 09:56:01;;;;;;;4.00;3.20;;;;;;;34.70;22.50;100480.96;107603;1247;59579;-82
2022/07/06 09:58:30;;;;;;;10.50;3.30;;;;;;;34.45;21.87;100482.27;107597;1248;58112;-70
2022/07/06 10:01:30;;;;;;;3.80;2.80;;;;;;;34.54;21.84;100475.86;107551;1247;74824;-73
2022/07/06 10:03:59;;;;;;;12.20;3.60;;;;;;;34.96;21.71;100471.12;107263;1249;61374;-75
2022/07/06 10:06:28;;;;;;;8.20;4.20;;;;;;;34.93;21.53;100469.33;107541;1249;59294;-75
2022/07/06 10:08:59;;;;;;;10.90;3.60;;;;;;;34.67;21.74;100472.52;107360;1249;64892;-72
2022/07/06 10:11:30;;;;;;;5.90;3.20;;;;;;;34.36;22.20;100470.30;107323;1250;60765;-77
2022/07/06 10:14:01;;;;;;;5.70;3.20;;;;;;;34.34;21.82;100469.92;107386;1247;61562;-78
2022/07/06 10:16:30;;;;;;;4.90;2.90;;;;;;;34.21;21.58;100467.77;107184;1249;64541;-76
2022/07/06 10:19:04;;;;;;;4.60;2.80;;;;;;;34.59;20.34;100475.40;107402;1250;61127;-80
2022/07/06 10:21:36;;;;;;;14.60;3.00;;;;;;;35.09;19.45;100477.79;107359;1249;70552;-77
2022/07/06 10:24:09;;;;;;;8.10;3.10;;;;;;;35.42;19.39;100475.05;107363;1249;64768;-74
2022/07/06 10:26:39;;;;;;;6.60;3.40;;;;;;;35.88;20.05;100473.48;107496;1249;60609;-74
2022/07/06 10:29:08;;;;;;;4.20;3.20;;;;;;;36.09;19.82;100470.92;107418;1249;62874;-76
2022/07/06 10:31:45;;;;;;;16.60;3.60;;;;;;;36.07;19.78;100458.80;107507;1248;65357;-77
2022/07/06 10:34:19;;;;;;;6.30;3.10;;;;;;;35.81;19.53;100454.23;107377;1249;62346;-76
2022/07/06 10:36:54;;;;;;;5.80;3.10;;;;;;;35.74;19.72;100451.48;107384;1249;70944;-81
2022/07/06 10:42:49;;;;;;;6.90;2.90;;;;;;;36.53;19.44;100447.18;107750;1249;59456;-80
2022/07/06 10:45:44;;;;;;;5.70;2.90;;;;;;;37.17;18.23;100443.60;107412;1249;59495;-80
2022/07/06 10:48:15;;;;;;;6.90;3.40;;;;;;;36.29;19.55;100443.05;107512;1249;63017;-80
2022/07/06 10:50:54;;;;;;;5.60;3.00;;;;;;;36.00;20.07;100441.58;107603;1248;63465;-76
2022/07/06 10:53:32;;;;;;;5.80;3.00;;;;;;;36.66;19.48;100438.87;107670;1249;60249;-75
2022/07/06 10:56:11;;;;;;;8.30;3.10;;;;;;;37.16;19.08;100440.81;107450;1251;63327;-76
2022/07/06 10:59:18;;;;;;;7.30;3.50;;;;;;;37.47;18.44;100438.71;107606;1248;61626;-78
2022/07/06 11:02:15;;;;;;;7.70;2.90;;;;;;;37.75;17.90;100426.77;107981;1249;59542;-77
2022/07/06 11:04:52;;;;;;;4.60;3.10;;;;;;;37.86;18.18;100420.65;108293;1248;75462;-76
2022/07/06 11:30:17;;;;;;;3.60;3.10;;;;;;;37.62;17.65;100399.58;109367;1241;59570;-87
2022/07/06 11:32:46;;;;;;;7.60;3.10;;;;;;;37.92;17.59;100394.70;108789;1248;74307;-86
2022/07/06 11:35:22;;;;;;;4.40;3.00;;;;;;;38.91;16.75;100397.26;108579;1249;61393;-85
2022/07/06 11:37:53;;;;;;;7.90;3.40;;;;;;;39.05;16.51;100404.07;108077;1248;69809;-81
2022/07/06 11:40:26;;;;;;;6.80;3.20;;;;;;;39.60;15.90;100400.77;108384;1250;62936;-84
2022/07/06 11:42:55;;;;;;;6.20;3.30;;;;;;;39.69;15.86;100400.66;108426;1249;60576;-82
2022/07/06 11:45:27;;;;;;;10.20;3.00;;;;;;;38.83;16.49;100398.40;108618;1251;60970;-83
2022/07/06 11:48:16;;;;;;;7.10;2.90;;;;;;;38.76;16.57;100399.33;108428;1251;65365;-84
2022/07/06 11:51:03;;;;;;;8.20;2.90;;;;;;;39.30;16.12;100405.17;108847;1250;63886;-84
2022/07/06 11:53:36;;;;;;;5.40;3.20;;;;;;;38.51;16.63;100405.94;108596;1251;71270;-82
2022/07/06 11:56:06;;;;;;;8.70;2.90;;;;;;;38.25;16.73;100412.36;108370;1248;65104;-83
2022/07/06 11:58:36;;;;;;;4.20;2.70;;;;;;;37.48;17.80;100417.17;108179;1251;60772;-86
2022/07/06 12:01:11;;;;;;;3.70;2.60;;;;;;;38.59;16.64;100409.38;108230;1250;57853;-83